sensor_id;sensor_type;location;lat;lon;timestamp;P1;durP1;ratioP1;P2;durP2;ratioP2
36191;SDS011;22233;42.708;23.360;2023-05-16T00:37:36;14.25;;;9.20;;
36191;SDS011;22233;42.708;23.360;2023-05-16T02:37:41;12.52;;;7.13;;
36191;SDS011;22233;42.708;23.360;2023-05-16T02:44:27;9.40;;;7.60;;
36191;SDS011;22233;42.708;23.360;2023-05-16T02:46:55;9.00;;;7.82;;
36191;SDS011;22233;42.708;23.360;2023-05-16T03:06:38;10.35;;;7.25;;
36191;SDS011;22233;42.708;23.360;2023-05-16T03:27:18;9.45;;;8.20;;
36191;SDS011;22233;42.708;23.360;2023-05-16T03:30:38;12.40;;;8.60;;
36191;SDS011;22233;42.708;23.360;2023-05-16T03:47:12;10.07;;;8.43;;
36191;SDS011;22233;42.708;23.360;2023-05-16T03:49:55;10.85;;;7.85;;
36191;SDS011;22233;42.708;23.360;2023-05-16T03:56:21;10.23;;;8.05;;
36191;SDS011;22233;42.708;23.360;2023-05-16T03:58:53;10.25;;;8.57;;
36191;SDS011;22233;42.708;23.360;2023-05-16T04:01:33;10.45;;;8.60;;
36191;SDS011;22233;42.708;23.360;2023-05-16T04:04:04;8.90;;;7.97;;
36191;SDS011;22233;42.708;23.360;2023-05-16T04:06:39;11.23;;;7.95;;
36191;SDS011;22233;42.708;23.360;2023-05-16T04:09:05;12.45;;;8.30;;
36191;SDS011;22233;42.708;23.360;2023-05-16T04:11:33;10.40;;;8.48;;
36191;SDS011;22233;42.708;23.360;2023-05-16T04:14:08;10.88;;;9.15;;
36191;SDS011;22233;42.708;23.360;2023-05-16T04:16:39;13.25;;;8.77;;
36191;SDS011;22233;42.708;23.360;2023-05-16T04:22:23;13.93;;;8.95;;
36191;SDS011;22233;42.708;23.360;2023-05-16T04:24:48;14.63;;;10.20;;
36191;SDS011;22233;42.708;23.360;2023-05-16T04:27:14;15.23;;;10.07;;
36191;SDS011;22233;42.708;23.360;2023-05-16T04:29:40;12.60;;;8.65;;
36191;SDS011;22233;42.708;23.360;2023-05-16T04:32:06;13.27;;;10.05;;
36191;SDS011;22233;42.708;23.360;2023-05-16T04:34:35;14.82;;;9.60;;
36191;SDS011;22233;42.708;23.360;2023-05-16T04:37:04;15.32;;;11.07;;
36191;SDS011;22233;42.708;23.360;2023-05-16T04:39:31;11.35;;;9.93;;
36191;SDS011;22233;42.708;23.360;2023-05-16T04:42:00;15.48;;;10.23;;
36191;SDS011;22233;42.708;23.360;2023-05-16T04:44:26;16.55;;;11.05;;
36191;SDS011;22233;42.708;23.360;2023-05-16T04:46:52;16.88;;;10.27;;
36191;SDS011;22233;42.708;23.360;2023-05-16T04:49:17;12.88;;;10.48;;
36191;SDS011;22233;42.708;23.360;2023-05-16T04:51:46;18.17;;;10.68;;
36191;SDS011;22233;42.708;23.360;2023-05-16T04:54:12;14.95;;;10.27;;
36191;SDS011;22233;42.708;23.360;2023-05-16T04:56:38;12.75;;;10.40;;
36191;SDS011;22233;42.708;23.360;2023-05-16T04:59:03;23.75;;;10.23;;
36191;SDS011;22233;42.708;23.360;2023-05-16T05:01:29;20.20;;;11.38;;
36191;SDS011;22233;42.708;23.360;2023-05-16T05:03:54;16.33;;;11.13;;
36191;SDS011;22233;42.708;23.360;2023-05-16T05:06:20;13.93;;;10.77;;
36191;SDS011;22233;42.708;23.360;2023-05-16T05:08:45;16.20;;;10.77;;
36191;SDS011;22233;42.708;23.360;2023-05-16T05:11:11;16.98;;;10.52;;
36191;SDS011;22233;42.708;23.360;2023-05-16T05:13:36;12.05;;;9.63;;
36191;SDS011;22233;42.708;23.360;2023-05-16T05:16:02;12.73;;;9.95;;
36191;SDS011;22233;42.708;23.360;2023-05-16T05:18:29;11.25;;;9.30;;
36191;SDS011;22233;42.708;23.360;2023-05-16T05:20:54;10.65;;;8.55;;
36191;SDS011;22233;42.708;23.360;2023-05-16T05:23:20;11.98;;;8.68;;
36191;SDS011;22233;42.708;23.360;2023-05-16T05:25:45;12.93;;;9.15;;
36191;SDS011;22233;42.708;23.360;2023-05-16T05:28:11;11.00;;;8.82;;
36191;SDS011;22233;42.708;23.360;2023-05-16T05:30:36;12.50;;;9.65;;
36191;SDS011;22233;42.708;23.360;2023-05-16T05:33:02;18.33;;;10.13;;
36191;SDS011;22233;42.708;23.360;2023-05-16T05:35:27;13.48;;;9.30;;
36191;SDS011;22233;42.708;23.360;2023-05-16T05:37:53;11.13;;;9.52;;
36191;SDS011;22233;42.708;23.360;2023-05-16T05:40:18;18.67;;;8.93;;
36191;SDS011;22233;42.708;23.360;2023-05-16T05:42:44;12.18;;;9.75;;
36191;SDS011;22233;42.708;23.360;2023-05-16T05:45:09;11.23;;;9.10;;
36191;SDS011;22233;42.708;23.360;2023-05-16T05:47:35;11.40;;;8.75;;
36191;SDS011;22233;42.708;23.360;2023-05-16T05:50:01;11.13;;;8.05;;
36191;SDS011;22233;42.708;23.360;2023-05-16T05:52:28;14.40;;;8.98;;
36191;SDS011;22233;42.708;23.360;2023-05-16T05:54:53;11.48;;;8.63;;
36191;SDS011;22233;42.708;23.360;2023-05-16T05:57:19;8.65;;;7.78;;
36191;SDS011;22233;42.708;23.360;2023-05-16T05:59:45;8.73;;;7.35;;
36191;SDS011;22233;42.708;23.360;2023-05-16T06:02:10;9.63;;;7.47;;
36191;SDS011;22233;42.708;23.360;2023-05-16T06:04:36;12.27;;;7.78;;
36191;SDS011;22233;42.708;23.360;2023-05-16T06:07:02;11.88;;;8.13;;
36191;SDS011;22233;42.708;23.360;2023-05-16T06:09:28;11.90;;;7.50;;
36191;SDS011;22233;42.708;23.360;2023-05-16T06:11:54;9.50;;;7.50;;
36191;SDS011;22233;42.708;23.360;2023-05-16T06:14:19;10.80;;;7.50;;
36191;SDS011;22233;42.708;23.360;2023-05-16T06:16:44;8.73;;;7.72;;
36191;SDS011;22233;42.708;23.360;2023-05-16T06:19:10;12.20;;;8.57;;
36191;SDS011;22233;42.708;23.360;2023-05-16T06:21:39;9.77;;;7.88;;
36191;SDS011;22233;42.708;23.360;2023-05-16T06:24:05;11.32;;;7.63;;
36191;SDS011;22233;42.708;23.360;2023-05-16T06:26:31;9.70;;;6.88;;
36191;SDS011;22233;42.708;23.360;2023-05-16T06:28:57;10.37;;;7.50;;
36191;SDS011;22233;42.708;23.360;2023-05-16T06:31:22;9.65;;;7.20;;
36191;SDS011;22233;42.708;23.360;2023-05-16T06:33:48;12.52;;;7.80;;
36191;SDS011;22233;42.708;23.360;2023-05-16T06:36:13;9.00;;;7.28;;
36191;SDS011;22233;42.708;23.360;2023-05-16T06:38:39;10.98;;;6.95;;
36191;SDS011;22233;42.708;23.360;2023-05-16T06:41:04;10.02;;;7.80;;
36191;SDS011;22233;42.708;23.360;2023-05-16T06:43:30;10.25;;;6.95;;
36191;SDS011;22233;42.708;23.360;2023-05-16T06:45:55;13.80;;;8.13;;
36191;SDS011;22233;42.708;23.360;2023-05-16T06:48:21;10.00;;;7.50;;
36191;SDS011;22233;42.708;23.360;2023-05-16T06:50:49;10.18;;;8.02;;
36191;SDS011;22233;42.708;23.360;2023-05-16T06:53:18;14.90;;;9.05;;
36191;SDS011;22233;42.708;23.360;2023-05-16T06:55:43;11.30;;;7.70;;
36191;SDS011;22233;42.708;23.360;2023-05-16T06:58:09;8.70;;;6.97;;
36191;SDS011;22233;42.708;23.360;2023-05-16T07:00:35;11.88;;;8.27;;
36191;SDS011;22233;42.708;23.360;2023-05-16T07:03:00;12.07;;;7.88;;
36191;SDS011;22233;42.708;23.360;2023-05-16T07:05:26;9.43;;;8.23;;
36191;SDS011;22233;42.708;23.360;2023-05-16T07:07:51;12.77;;;8.52;;
36191;SDS011;22233;42.708;23.360;2023-05-16T07:10:17;9.60;;;7.13;;
36191;SDS011;22233;42.708;23.360;2023-05-16T07:12:42;12.43;;;7.50;;
36191;SDS011;22233;42.708;23.360;2023-05-16T07:15:08;11.18;;;7.72;;
36191;SDS011;22233;42.708;23.360;2023-05-16T07:17:33;12.40;;;8.45;;
36191;SDS011;22233;42.708;23.360;2023-05-16T07:19:59;9.43;;;7.60;;
36191;SDS011;22233;42.708;23.360;2023-05-16T07:22:24;9.13;;;7.40;;
36191;SDS011;22233;42.708;23.360;2023-05-16T07:24:50;12.88;;;7.90;;
36191;SDS011;22233;42.708;23.360;2023-05-16T07:27:18;13.43;;;8.23;;
36191;SDS011;22233;42.708;23.360;2023-05-16T07:29:43;11.57;;;7.30;;
36191;SDS011;22233;42.708;23.360;2023-05-16T07:32:09;12.35;;;7.65;;
36191;SDS011;22233;42.708;23.360;2023-05-16T07:34:34;9.80;;;7.22;;
36191;SDS011;22233;42.708;23.360;2023-05-16T07:36:59;10.05;;;7.35;;
36191;SDS011;22233;42.708;23.360;2023-05-16T07:39:25;9.00;;;7.15;;
36191;SDS011;22233;42.708;23.360;2023-05-16T07:41:50;15.88;;;8.32;;
36191;SDS011;22233;42.708;23.360;2023-05-16T07:44:16;11.13;;;7.45;;
36191;SDS011;22233;42.708;23.360;2023-05-16T07:46:41;14.38;;;7.80;;
36191;SDS011;22233;42.708;23.360;2023-05-16T07:49:08;10.27;;;8.93;;
36191;SDS011;22233;42.708;23.360;2023-05-16T07:51:34;15.05;;;8.18;;
36191;SDS011;22233;42.708;23.360;2023-05-16T07:54:00;12.98;;;7.28;;
36191;SDS011;22233;42.708;23.360;2023-05-16T07:56:26;11.77;;;7.45;;
36191;SDS011;22233;42.708;23.360;2023-05-16T07:58:51;8.55;;;7.03;;
36191;SDS011;22233;42.708;23.360;2023-05-16T08:01:17;10.25;;;6.80;;
36191;SDS011;22233;42.708;23.360;2023-05-16T08:03:43;14.38;;;7.95;;
36191;SDS011;22233;42.708;23.360;2023-05-16T08:06:08;11.50;;;6.95;;
36191;SDS011;22233;42.708;23.360;2023-05-16T08:08:34;12.88;;;7.32;;
36191;SDS011;22233;42.708;23.360;2023-05-16T08:10:59;12.65;;;7.75;;
36191;SDS011;22233;42.708;23.360;2023-05-16T08:13:25;10.75;;;8.15;;
36191;SDS011;22233;42.708;23.360;2023-05-16T08:15:50;13.50;;;8.15;;
36191;SDS011;22233;42.708;23.360;2023-05-16T08:18:16;10.65;;;8.27;;
36191;SDS011;22233;42.708;23.360;2023-05-16T08:20:41;10.27;;;7.85;;
36191;SDS011;22233;42.708;23.360;2023-05-16T08:23:07;11.77;;;8.05;;
36191;SDS011;22233;42.708;23.360;2023-05-16T08:25:33;9.88;;;6.72;;
36191;SDS011;22233;42.708;23.360;2023-05-16T08:27:59;10.57;;;6.90;;
36191;SDS011;22233;42.708;23.360;2023-05-16T08:30:28;10.43;;;6.65;;
36191;SDS011;22233;42.708;23.360;2023-05-16T08:32:54;9.98;;;6.20;;
36191;SDS011;22233;42.708;23.360;2023-05-16T08:35:19;7.72;;;5.68;;
36191;SDS011;22233;42.708;23.360;2023-05-16T08:37:45;9.48;;;7.00;;
36191;SDS011;22233;42.708;23.360;2023-05-16T08:40:11;9.63;;;6.95;;
36191;SDS011;22233;42.708;23.360;2023-05-16T08:42:38;9.45;;;6.25;;
36191;SDS011;22233;42.708;23.360;2023-05-16T08:45:03;8.52;;;6.05;;
36191;SDS011;22233;42.708;23.360;2023-05-16T08:47:30;8.40;;;5.63;;
36191;SDS011;22233;42.708;23.360;2023-05-16T08:49:57;8.38;;;5.60;;
36191;SDS011;22233;42.708;23.360;2023-05-16T08:52:24;8.55;;;5.72;;
36191;SDS011;22233;42.708;23.360;2023-05-16T08:54:59;10.55;;;6.38;;
36191;SDS011;22233;42.708;23.360;2023-05-16T08:57:30;12.88;;;5.57;;
36191;SDS011;22233;42.708;23.360;2023-05-16T08:59:56;6.75;;;5.60;;
36191;SDS011;22233;42.708;23.360;2023-05-16T09:02:22;8.60;;;5.53;;
36191;SDS011;22233;42.708;23.360;2023-05-16T09:04:48;10.20;;;5.50;;
36191;SDS011;22233;42.708;23.360;2023-05-16T09:07:14;8.02;;;5.43;;
36191;SDS011;22233;42.708;23.360;2023-05-16T09:09:40;6.97;;;5.32;;
36191;SDS011;22233;42.708;23.360;2023-05-16T09:12:06;6.78;;;5.18;;
36191;SDS011;22233;42.708;23.360;2023-05-16T09:14:32;8.40;;;5.88;;
36191;SDS011;22233;42.708;23.360;2023-05-16T09:17:07;8.50;;;5.40;;
36191;SDS011;22233;42.708;23.360;2023-05-16T09:19:40;10.18;;;4.97;;
36191;SDS011;22233;42.708;23.360;2023-05-16T09:22:13;9.05;;;6.00;;
36191;SDS011;22233;42.708;23.360;2023-05-16T09:24:39;12.15;;;5.25;;
36191;SDS011;22233;42.708;23.360;2023-05-16T09:27:10;9.60;;;5.78;;
36191;SDS011;22233;42.708;23.360;2023-05-16T09:29:40;9.95;;;5.25;;
36191;SDS011;22233;42.708;23.360;2023-05-16T09:32:11;6.80;;;5.53;;
36191;SDS011;22233;42.708;23.360;2023-05-16T09:34:45;8.95;;;6.22;;
36191;SDS011;22233;42.708;23.360;2023-05-16T09:37:16;9.13;;;6.47;;
36191;SDS011;22233;42.708;23.360;2023-05-16T09:39:46;8.43;;;5.55;;
36191;SDS011;22233;42.708;23.360;2023-05-16T09:42:13;10.95;;;6.00;;
36191;SDS011;22233;42.708;23.360;2023-05-16T09:44:40;9.65;;;6.45;;
36191;SDS011;22233;42.708;23.360;2023-05-16T09:47:06;10.00;;;5.85;;
36191;SDS011;22233;42.708;23.360;2023-05-16T09:49:31;12.48;;;6.25;;
36191;SDS011;22233;42.708;23.360;2023-05-16T09:52:00;8.73;;;6.47;;
36191;SDS011;22233;42.708;23.360;2023-05-16T09:54:30;12.63;;;6.55;;
36191;SDS011;22233;42.708;23.360;2023-05-16T09:56:57;8.65;;;5.95;;
36191;SDS011;22233;42.708;23.360;2023-05-16T09:59:23;8.25;;;5.90;;
36191;SDS011;22233;42.708;23.360;2023-05-16T10:01:48;8.77;;;5.95;;
36191;SDS011;22233;42.708;23.360;2023-05-16T10:04:15;11.10;;;5.80;;
36191;SDS011;22233;42.708;23.360;2023-05-16T10:06:41;8.35;;;5.72;;
36191;SDS011;22233;42.708;23.360;2023-05-16T10:09:09;9.68;;;5.53;;
36191;SDS011;22233;42.708;23.360;2023-05-16T10:11:37;8.77;;;5.38;;
36191;SDS011;22233;42.708;23.360;2023-05-16T10:14:05;6.47;;;5.53;;
36191;SDS011;22233;42.708;23.360;2023-05-16T10:16:33;8.82;;;5.78;;
36191;SDS011;22233;42.708;23.360;2023-05-16T10:18:59;7.72;;;5.35;;
36191;SDS011;22233;42.708;23.360;2023-05-16T10:21:27;7.57;;;5.57;;
36191;SDS011;22233;42.708;23.360;2023-05-16T10:23:55;9.25;;;5.93;;
36191;SDS011;22233;42.708;23.360;2023-05-16T10:26:22;7.22;;;5.43;;
36191;SDS011;22233;42.708;23.360;2023-05-16T10:28:50;9.63;;;5.80;;
36191;SDS011;22233;42.708;23.360;2023-05-16T10:31:15;8.30;;;5.35;;
36191;SDS011;22233;42.708;23.360;2023-05-16T10:33:41;10.25;;;5.95;;
36191;SDS011;22233;42.708;23.360;2023-05-16T10:36:10;8.77;;;5.70;;
36191;SDS011;22233;42.708;23.360;2023-05-16T10:38:36;10.75;;;5.45;;
36191;SDS011;22233;42.708;23.360;2023-05-16T10:41:03;8.05;;;5.22;;
36191;SDS011;22233;42.708;23.360;2023-05-16T10:43:29;9.32;;;5.78;;
36191;SDS011;22233;42.708;23.360;2023-05-16T10:45:56;9.77;;;5.97;;
36191;SDS011;22233;42.708;23.360;2023-05-16T10:53:46;10.90;;;5.88;;
36191;SDS011;22233;42.708;23.360;2023-05-16T10:56:11;14.73;;;6.25;;
36191;SDS011;22233;42.708;23.360;2023-05-16T11:01:16;9.50;;;6.18;;
36191;SDS011;22233;42.708;23.360;2023-05-16T11:06:32;9.95;;;6.03;;
36191;SDS011;22233;42.708;23.360;2023-05-16T11:11:42;8.63;;;5.88;;
36191;SDS011;22233;42.708;23.360;2023-05-16T11:14:55;6.00;;;4.75;;
36191;SDS011;22233;42.708;23.360;2023-05-16T11:17:14;8.40;;;5.60;;
36191;SDS011;22233;42.708;23.360;2023-05-16T11:19:44;8.45;;;5.30;;
36191;SDS011;22233;42.708;23.360;2023-05-16T11:27:31;7.50;;;5.55;;
36191;SDS011;22233;42.708;23.360;2023-05-16T11:29:58;14.68;;;5.90;;
36191;SDS011;22233;42.708;23.360;2023-05-16T11:32:24;8.07;;;6.13;;
36191;SDS011;22233;42.708;23.360;2023-05-16T11:34:50;8.32;;;5.03;;
36191;SDS011;22233;42.708;23.360;2023-05-16T11:37:17;7.27;;;5.00;;
36191;SDS011;22233;42.708;23.360;2023-05-16T11:39:44;9.55;;;5.45;;
36191;SDS011;22233;42.708;23.360;2023-05-16T11:42:10;9.98;;;5.38;;
36191;SDS011;22233;42.708;23.360;2023-05-16T11:44:37;8.98;;;4.93;;
36191;SDS011;22233;42.708;23.360;2023-05-16T11:47:02;6.53;;;5.03;;
36191;SDS011;22233;42.708;23.360;2023-05-16T11:49:28;8.32;;;4.60;;
36191;SDS011;22233;42.708;23.360;2023-05-16T11:51:54;8.27;;;4.85;;
36191;SDS011;22233;42.708;23.360;2023-05-16T11:56:46;6.63;;;4.95;;
36191;SDS011;22233;42.708;23.360;2023-05-16T11:59:13;9.80;;;4.90;;
36191;SDS011;22233;42.708;23.360;2023-05-16T12:01:39;7.80;;;4.68;;
36191;SDS011;22233;42.708;23.360;2023-05-16T12:04:08;11.40;;;5.40;;
36191;SDS011;22233;42.708;23.360;2023-05-16T12:06:36;9.02;;;5.07;;
36191;SDS011;22233;42.708;23.360;2023-05-16T12:09:10;12.25;;;5.53;;
36191;SDS011;22233;42.708;23.360;2023-05-16T12:11:37;6.15;;;4.80;;
36191;SDS011;22233;42.708;23.360;2023-05-16T12:14:08;6.00;;;5.00;;
36191;SDS011;22233;42.708;23.360;2023-05-16T12:16:36;9.52;;;4.68;;
36191;SDS011;22233;42.708;23.360;2023-05-16T12:19:05;8.32;;;4.97;;
36191;SDS011;22233;42.708;23.360;2023-05-16T12:21:39;9.27;;;4.95;;
36191;SDS011;22233;42.708;23.360;2023-05-16T12:24:08;7.10;;;4.05;;
36191;SDS011;22233;42.708;23.360;2023-05-16T12:26:34;8.68;;;4.82;;
36191;SDS011;22233;42.708;23.360;2023-05-16T12:29:00;6.63;;;4.47;;
36191;SDS011;22233;42.708;23.360;2023-05-16T12:31:30;6.88;;;5.05;;
36191;SDS011;22233;42.708;23.360;2023-05-16T12:34:01;5.75;;;4.43;;
36191;SDS011;22233;42.708;23.360;2023-05-16T12:36:30;11.48;;;4.90;;
36191;SDS011;22233;42.708;23.360;2023-05-16T12:39:01;8.27;;;4.88;;
36191;SDS011;22233;42.708;23.360;2023-05-16T12:41:28;7.70;;;5.30;;
36191;SDS011;22233;42.708;23.360;2023-05-16T12:44:10;5.28;;;4.32;;
36191;SDS011;22233;42.708;23.360;2023-05-16T12:46:59;7.82;;;5.35;;
36191;SDS011;22233;42.708;23.360;2023-05-16T12:49:24;7.50;;;4.65;;
36191;SDS011;22233;42.708;23.360;2023-05-16T12:51:50;9.43;;;5.57;;
36191;SDS011;22233;42.708;23.360;2023-05-16T12:54:16;7.47;;;4.97;;
36191;SDS011;22233;42.708;23.360;2023-05-16T12:56:42;8.00;;;5.57;;
36191;SDS011;22233;42.708;23.360;2023-05-16T12:59:08;9.27;;;5.60;;
36191;SDS011;22233;42.708;23.360;2023-05-16T13:01:35;7.25;;;4.95;;
36191;SDS011;22233;42.708;23.360;2023-05-16T13:04:01;9.18;;;5.70;;
36191;SDS011;22233;42.708;23.360;2023-05-16T13:06:28;9.63;;;6.15;;
36191;SDS011;22233;42.708;23.360;2023-05-16T13:08:53;8.88;;;5.28;;
36191;SDS011;22233;42.708;23.360;2023-05-16T13:11:19;9.88;;;5.47;;
36191;SDS011;22233;42.708;23.360;2023-05-16T13:13:45;7.28;;;5.40;;
36191;SDS011;22233;42.708;23.360;2023-05-16T13:16:10;12.05;;;5.63;;
36191;SDS011;22233;42.708;23.360;2023-05-16T13:18:36;6.68;;;5.53;;
36191;SDS011;22233;42.708;23.360;2023-05-16T13:21:01;10.90;;;6.00;;
36191;SDS011;22233;42.708;23.360;2023-05-16T13:23:30;8.07;;;5.10;;
36191;SDS011;22233;42.708;23.360;2023-05-16T13:25:57;8.98;;;5.10;;
36191;SDS011;22233;42.708;23.360;2023-05-16T13:28:23;11.50;;;6.15;;
36191;SDS011;22233;42.708;23.360;2023-05-16T13:30:49;10.43;;;6.07;;
36191;SDS011;22233;42.708;23.360;2023-05-16T13:33:15;10.10;;;5.13;;
36191;SDS011;22233;42.708;23.360;2023-05-16T13:35:40;6.97;;;5.40;;
36191;SDS011;22233;42.708;23.360;2023-05-16T13:38:05;8.80;;;5.25;;
36191;SDS011;22233;42.708;23.360;2023-05-16T13:40:31;11.05;;;5.70;;
36191;SDS011;22233;42.708;23.360;2023-05-16T13:42:56;8.90;;;5.88;;
36191;SDS011;22233;42.708;23.360;2023-05-16T13:45:22;9.90;;;5.47;;
36191;SDS011;22233;42.708;23.360;2023-05-16T13:47:47;12.77;;;5.32;;
36191;SDS011;22233;42.708;23.360;2023-05-16T13:50:13;8.85;;;5.47;;
36191;SDS011;22233;42.708;23.360;2023-05-16T13:52:38;7.00;;;5.40;;
36191;SDS011;22233;42.708;23.360;2023-05-16T13:55:04;13.85;;;5.53;;
36191;SDS011;22233;42.708;23.360;2023-05-16T13:57:30;6.57;;;4.97;;
36191;SDS011;22233;42.708;23.360;2023-05-16T13:59:57;9.20;;;5.10;;
36191;SDS011;22233;42.708;23.360;2023-05-16T14:02:23;9.00;;;5.43;;
36191;SDS011;22233;42.708;23.360;2023-05-16T14:04:50;10.25;;;5.40;;
36191;SDS011;22233;42.708;23.360;2023-05-16T14:07:16;6.40;;;5.43;;
36191;SDS011;22233;42.708;23.360;2023-05-16T14:09:41;7.57;;;5.63;;
36191;SDS011;22233;42.708;23.360;2023-05-16T14:12:08;9.07;;;6.20;;
36191;SDS011;22233;42.708;23.360;2023-05-16T14:14:34;15.00;;;6.40;;
36191;SDS011;22233;42.708;23.360;2023-05-16T14:16:59;11.13;;;5.53;;
36191;SDS011;22233;42.708;23.360;2023-05-16T14:19:25;14.73;;;6.28;;
36191;SDS011;22233;42.708;23.360;2023-05-16T14:21:50;9.80;;;6.10;;
36191;SDS011;22233;42.708;23.360;2023-05-16T14:24:16;14.45;;;6.25;;
36191;SDS011;22233;42.708;23.360;2023-05-16T14:26:41;12.38;;;6.38;;
36191;SDS011;22233;42.708;23.360;2023-05-16T14:29:07;22.55;;;6.78;;
36191;SDS011;22233;42.708;23.360;2023-05-16T14:31:32;9.43;;;6.63;;
36191;SDS011;22233;42.708;23.360;2023-05-16T14:34:00;12.10;;;6.35;;
36191;SDS011;22233;42.708;23.360;2023-05-16T14:36:25;11.10;;;6.18;;
36191;SDS011;22233;42.708;23.360;2023-05-16T14:38:51;9.05;;;6.68;;
36191;SDS011;22233;42.708;23.360;2023-05-16T14:41:16;10.00;;;6.03;;
36191;SDS011;22233;42.708;23.360;2023-05-16T14:43:43;12.35;;;6.30;;
36191;SDS011;22233;42.708;23.360;2023-05-16T14:46:09;12.02;;;6.95;;
36191;SDS011;22233;42.708;23.360;2023-05-16T14:48:35;15.18;;;7.20;;
36191;SDS011;22233;42.708;23.360;2023-05-16T14:51:00;10.13;;;6.03;;
36191;SDS011;22233;42.708;23.360;2023-05-16T14:53:25;14.15;;;7.07;;
36191;SDS011;22233;42.708;23.360;2023-05-16T14:55:51;10.82;;;6.40;;
36191;SDS011;22233;42.708;23.360;2023-05-16T14:58:16;8.68;;;6.15;;
36191;SDS011;22233;42.708;23.360;2023-05-16T15:00:42;8.55;;;6.75;;
36191;SDS011;22233;42.708;23.360;2023-05-16T15:03:07;10.65;;;5.97;;
36191;SDS011;22233;42.708;23.360;2023-05-16T15:05:33;8.50;;;6.22;;
36191;SDS011;22233;42.708;23.360;2023-05-16T15:07:58;9.10;;;7.15;;
36191;SDS011;22233;42.708;23.360;2023-05-16T15:10:24;10.77;;;7.38;;
36191;SDS011;22233;42.708;23.360;2023-05-16T15:12:50;12.63;;;7.90;;
36191;SDS011;22233;42.708;23.360;2023-05-16T15:15:15;17.98;;;9.30;;
36191;SDS011;22233;42.708;23.360;2023-05-16T15:17:41;20.38;;;9.75;;
36191;SDS011;22233;42.708;23.360;2023-05-16T15:20:07;13.75;;;7.93;;
36191;SDS011;22233;42.708;23.360;2023-05-16T15:22:33;10.68;;;8.45;;
36191;SDS011;22233;42.708;23.360;2023-05-16T15:25:00;15.05;;;9.48;;
36191;SDS011;22233;42.708;23.360;2023-05-16T15:27:26;13.68;;;8.48;;
36191;SDS011;22233;42.708;23.360;2023-05-16T15:29:52;15.32;;;8.63;;
36191;SDS011;22233;42.708;23.360;2023-05-16T15:32:17;14.73;;;8.30;;
36191;SDS011;22233;42.708;23.360;2023-05-16T15:34:43;14.00;;;8.48;;
36191;SDS011;22233;42.708;23.360;2023-05-16T15:37:08;14.48;;;8.55;;
36191;SDS011;22233;42.708;23.360;2023-05-16T15:39:34;13.90;;;7.10;;
36191;SDS011;22233;42.708;23.360;2023-05-16T15:42:00;10.38;;;7.00;;
36191;SDS011;22233;42.708;23.360;2023-05-16T15:44:28;14.43;;;7.88;;
36191;SDS011;22233;42.708;23.360;2023-05-16T15:46:53;10.57;;;7.13;;
36191;SDS011;22233;42.708;23.360;2023-05-16T15:49:19;13.40;;;7.60;;
36191;SDS011;22233;42.708;23.360;2023-05-16T15:51:45;9.60;;;7.20;;
36191;SDS011;22233;42.708;23.360;2023-05-16T15:54:11;9.80;;;7.35;;
36191;SDS011;22233;42.708;23.360;2023-05-16T15:56:36;9.55;;;8.02;;
36191;SDS011;22233;42.708;23.360;2023-05-16T15:59:02;13.75;;;8.32;;
36191;SDS011;22233;42.708;23.360;2023-05-16T16:01:27;8.45;;;5.88;;
36191;SDS011;22233;42.708;23.360;2023-05-16T16:03:53;11.43;;;6.65;;
36191;SDS011;22233;42.708;23.360;2023-05-16T16:06:19;10.10;;;6.70;;
36191;SDS011;22233;42.708;23.360;2023-05-16T16:08:45;9.80;;;6.43;;
36191;SDS011;22233;42.708;23.360;2023-05-16T16:11:10;8.48;;;5.95;;
36191;SDS011;22233;42.708;23.360;2023-05-16T16:13:35;10.20;;;6.50;;
36191;SDS011;22233;42.708;23.360;2023-05-16T16:16:01;12.60;;;7.25;;
36191;SDS011;22233;42.708;23.360;2023-05-16T16:18:27;10.27;;;6.47;;
36191;SDS011;22233;42.708;23.360;2023-05-16T16:20:52;10.23;;;6.70;;
36191;SDS011;22233;42.708;23.360;2023-05-16T16:23:18;13.48;;;7.30;;
36191;SDS011;22233;42.708;23.360;2023-05-16T16:25:44;9.25;;;7.78;;
36191;SDS011;22233;42.708;23.360;2023-05-16T16:28:09;10.45;;;6.65;;
36191;SDS011;22233;42.708;23.360;2023-05-16T16:30:34;10.32;;;6.78;;
36191;SDS011;22233;42.708;23.360;2023-05-16T16:33:00;10.38;;;5.95;;
36191;SDS011;22233;42.708;23.360;2023-05-16T16:35:25;9.15;;;6.35;;
36191;SDS011;22233;42.708;23.360;2023-05-16T16:37:51;12.18;;;7.50;;
36191;SDS011;22233;42.708;23.360;2023-05-16T16:40:17;12.55;;;8.50;;
36191;SDS011;22233;42.708;23.360;2023-05-16T16:42:42;11.80;;;8.38;;
36191;SDS011;22233;42.708;23.360;2023-05-16T16:45:08;10.60;;;7.93;;
36191;SDS011;22233;42.708;23.360;2023-05-16T16:47:34;11.45;;;7.90;;
36191;SDS011;22233;42.708;23.360;2023-05-16T16:50:00;15.05;;;8.80;;
36191;SDS011;22233;42.708;23.360;2023-05-16T16:52:26;13.73;;;9.57;;
36191;SDS011;22233;42.708;23.360;2023-05-16T16:54:52;13.10;;;9.20;;
36191;SDS011;22233;42.708;23.360;2023-05-16T16:57:17;14.48;;;8.52;;
36191;SDS011;22233;42.708;23.360;2023-05-16T16:59:43;12.93;;;9.45;;
36191;SDS011;22233;42.708;23.360;2023-05-16T17:04:36;12.05;;;9.30;;
36191;SDS011;22233;42.708;23.360;2023-05-16T17:07:01;14.95;;;8.93;;
36191;SDS011;22233;42.708;23.360;2023-05-16T17:09:27;12.55;;;8.35;;
36191;SDS011;22233;42.708;23.360;2023-05-16T17:11:52;12.20;;;7.93;;
36191;SDS011;22233;42.708;23.360;2023-05-16T17:14:17;10.70;;;8.57;;
36191;SDS011;22233;42.708;23.360;2023-05-16T17:16:43;12.15;;;8.00;;
36191;SDS011;22233;42.708;23.360;2023-05-16T17:19:09;10.15;;;8.10;;
36191;SDS011;22233;42.708;23.360;2023-05-16T17:21:34;9.73;;;8.02;;
36191;SDS011;22233;42.708;23.360;2023-05-16T17:24:04;13.10;;;10.00;;
36191;SDS011;22233;42.708;23.360;2023-05-16T17:26:30;12.15;;;8.80;;
36191;SDS011;22233;42.708;23.360;2023-05-16T17:28:55;10.82;;;8.70;;
36191;SDS011;22233;42.708;23.360;2023-05-16T17:31:22;11.20;;;8.32;;
36191;SDS011;22233;42.708;23.360;2023-05-16T17:33:48;10.80;;;9.52;;
36191;SDS011;22233;42.708;23.360;2023-05-16T17:36:13;13.93;;;9.70;;
36191;SDS011;22233;42.708;23.360;2023-05-16T17:38:39;12.93;;;9.30;;
36191;SDS011;22233;42.708;23.360;2023-05-16T17:41:05;12.82;;;9.45;;
36191;SDS011;22233;42.708;23.360;2023-05-16T17:43:30;15.77;;;10.70;;
36191;SDS011;22233;42.708;23.360;2023-05-16T17:45:56;13.82;;;10.57;;
36191;SDS011;22233;42.708;23.360;2023-05-16T17:48:21;15.52;;;10.20;;
36191;SDS011;22233;42.708;23.360;2023-05-16T17:50:47;12.63;;;9.95;;
36191;SDS011;22233;42.708;23.360;2023-05-16T17:53:14;13.30;;;9.73;;
36191;SDS011;22233;42.708;23.360;2023-05-16T17:55:39;13.13;;;10.52;;
36191;SDS011;22233;42.708;23.360;2023-05-16T17:58:05;14.95;;;10.18;;
36191;SDS011;22233;42.708;23.360;2023-05-16T18:00:31;12.63;;;10.35;;
36191;SDS011;22233;42.708;23.360;2023-05-16T18:02:56;16.58;;;11.23;;
36191;SDS011;22233;42.708;23.360;2023-05-16T18:05:22;15.38;;;10.95;;
36191;SDS011;22233;42.708;23.360;2023-05-16T18:07:48;18.35;;;11.50;;
36191;SDS011;22233;42.708;23.360;2023-05-16T18:10:13;14.07;;;10.52;;
36191;SDS011;22233;42.708;23.360;2023-05-16T18:12:39;15.13;;;11.70;;
36191;SDS011;22233;42.708;23.360;2023-05-16T18:15:05;17.80;;;11.10;;
36191;SDS011;22233;42.708;23.360;2023-05-16T18:17:32;15.80;;;10.77;;
36191;SDS011;22233;42.708;23.360;2023-05-16T18:19:58;16.08;;;9.95;;
36191;SDS011;22233;42.708;23.360;2023-05-16T18:22:24;15.70;;;9.05;;